sensor_id;sensor_type;location;lat;lon;timestamp;pressure;altitude;pressure_sealevel;temperature;humidity
74958;BME280;63741;42.624;26.276;2023-03-04T00:00:09;99903.19;;;5.19;81.56
74958;BME280;63741;42.624;26.276;2023-03-04T00:02:36;99905.97;;;5.16;82.20
74958;BME280;63741;42.624;26.276;2023-03-04T00:05:04;99899.41;;;5.24;82.04
74958;BME280;63741;42.624;26.276;2023-03-04T00:07:31;99897.47;;;5.28;80.94
74958;BME280;63741;42.624;26.276;2023-03-04T00:09:58;99894.06;;;5.26;82.32
74958;BME280;63741;42.624;26.276;2023-03-04T00:12:25;99892.28;;;5.26;81.14
74958;BME280;63741;42.624;26.276;2023-03-04T00:14:52;99895.88;;;5.08;82.30
74958;BME280;63741;42.624;26.276;2023-03-04T00:17:19;99891.78;;;5.02;82.59
74958;BME280;63741;42.624;26.276;2023-03-04T00:19:46;99894.03;;;5.10;82.92
74958;BME280;63741;42.624;26.276;2023-03-04T00:22:13;99881.44;;;5.17;82.23
74958;BME280;63741;42.624;26.276;2023-03-04T00:24:40;99884.75;;;5.20;83.06
74958;BME280;63741;42.624;26.276;2023-03-04T00:27:06;99876.66;;;5.25;82.21
74958;BME280;63741;42.624;26.276;2023-03-04T00:29:33;99871.56;;;5.22;81.92
74958;BME280;63741;42.624;26.276;2023-03-04T00:32:00;99870.81;;;5.20;82.39
74958;BME280;63741;42.624;26.276;2023-03-04T00:34:28;99866.88;;;5.11;82.96
74958;BME280;63741;42.624;26.276;2023-03-04T00:36:57;99863.88;;;5.19;82.46
74958;BME280;63741;42.624;26.276;2023-03-04T00:39:27;99867.03;;;5.08;82.87
74958;BME280;63741;42.624;26.276;2023-03-04T00:41:54;99854.00;;;5.06;82.62
74958;BME280;63741;42.624;26.276;2023-03-04T00:44:21;99857.31;;;5.10;83.10
74958;BME280;63741;42.624;26.276;2023-03-04T00:46:48;99862.38;;;5.13;82.01
74958;BME280;63741;42.624;26.276;2023-03-04T00:49:14;99857.00;;;4.99;82.40
74958;BME280;63741;42.624;26.276;2023-03-04T00:51:41;99855.47;;;4.77;84.13
74958;BME280;63741;42.624;26.276;2023-03-04T00:54:08;99860.28;;;4.87;83.07
74958;BME280;63741;42.624;26.276;2023-03-04T00:56:35;99851.63;;;4.85;82.97
74958;BME280;63741;42.624;26.276;2023-03-04T00:59:02;99859.34;;;4.88;82.90
74958;BME280;63741;42.624;26.276;2023-03-04T01:01:30;99861.19;;;4.86;82.53
74958;BME280;63741;42.624;26.276;2023-03-04T01:03:57;99858.41;;;4.89;83.59
74958;BME280;63741;42.624;26.276;2023-03-04T01:06:25;99854.94;;;4.88;82.80
74958;BME280;63741;42.624;26.276;2023-03-04T01:08:52;99850.31;;;4.76;82.96
74958;BME280;63741;42.624;26.276;2023-03-04T01:11:19;99845.91;;;4.76;82.68
74958;BME280;63741;42.624;26.276;2023-03-04T01:13:46;99846.16;;;4.72;83.24
74958;BME280;63741;42.624;26.276;2023-03-04T01:16:14;99848.25;;;4.65;82.61
74958;BME280;63741;42.624;26.276;2023-03-04T01:18:41;99848.47;;;4.61;82.07
74958;BME280;63741;42.624;26.276;2023-03-04T01:21:08;99852.16;;;4.56;82.63
74958;BME280;63741;42.624;26.276;2023-03-04T01:23:35;99847.16;;;4.52;82.43
74958;BME280;63741;42.624;26.276;2023-03-04T01:26:02;99850.53;;;4.54;81.73
74958;BME280;63741;42.624;26.276;2023-03-04T01:28:29;99858.88;;;4.62;81.67
74958;BME280;63741;42.624;26.276;2023-03-04T01:30:56;99852.22;;;4.55;82.12
74958;BME280;63741;42.624;26.276;2023-03-04T01:33:23;99850.69;;;4.51;82.63
74958;BME280;63741;42.624;26.276;2023-03-04T01:35:50;99859.22;;;4.54;82.06
74958;BME280;63741;42.624;26.276;2023-03-04T01:38:17;99855.31;;;4.63;81.98
74958;BME280;63741;42.624;26.276;2023-03-04T01:40:43;99872.56;;;4.50;82.35
74958;BME280;63741;42.624;26.276;2023-03-04T01:43:17;99869.78;;;4.53;82.12
74958;BME280;63741;42.624;26.276;2023-03-04T01:45:47;99874.31;;;4.49;81.91
74958;BME280;63741;42.624;26.276;2023-03-04T01:48:16;99877.88;;;4.48;82.98
74958;BME280;63741;42.624;26.276;2023-03-04T01:50:44;99867.72;;;4.42;82.49
74958;BME280;63741;42.624;26.276;2023-03-04T01:53:19;99872.94;;;4.42;82.88
74958;BME280;63741;42.624;26.276;2023-03-04T01:55:48;99872.53;;;4.32;83.02
74958;BME280;63741;42.624;26.276;2023-03-04T01:58:15;99870.78;;;4.33;83.61
74958;BME280;63741;42.624;26.276;2023-03-04T02:00:43;99861.13;;;3.97;83.99
74958;BME280;63741;42.624;26.276;2023-03-04T02:03:14;99859.47;;;4.14;84.14
74958;BME280;63741;42.624;26.276;2023-03-04T02:05:44;99858.81;;;4.27;82.87
74958;BME280;63741;42.624;26.276;2023-03-04T02:08:13;99867.66;;;4.25;83.08
74958;BME280;63741;42.624;26.276;2023-03-04T02:10:42;99867.22;;;4.34;83.00
74958;BME280;63741;42.624;26.276;2023-03-04T02:13:10;99875.56;;;4.42;81.85
74958;BME280;63741;42.624;26.276;2023-03-04T02:15:37;99865.38;;;4.36;82.20
74958;BME280;63741;42.624;26.276;2023-03-04T02:18:20;99869.63;;;4.39;81.83
74958;BME280;63741;42.624;26.276;2023-03-04T02:26:42;99871.56;;;4.16;82.19
74958;BME280;63741;42.624;26.276;2023-03-04T02:29:12;99875.81;;;4.19;81.88
74958;BME280;63741;42.624;26.276;2023-03-04T02:31:42;99870.78;;;4.14;81.52
74958;BME280;63741;42.624;26.276;2023-03-04T02:34:13;99878.44;;;4.00;81.63
74958;BME280;63741;42.624;26.276;2023-03-04T02:36:42;99883.75;;;3.98;81.24
74958;BME280;63741;42.624;26.276;2023-03-04T02:39:13;99887.13;;;4.00;81.22
74958;BME280;63741;42.624;26.276;2023-03-04T02:41:41;99887.16;;;3.82;82.38
74958;BME280;63741;42.624;26.276;2023-03-04T02:44:28;99885.25;;;3.66;83.09
74958;BME280;63741;42.624;26.276;2023-03-04T02:46:57;99888.19;;;3.77;83.38
74958;BME280;63741;42.624;26.276;2023-03-04T02:49:27;99895.75;;;3.84;82.96
74958;BME280;63741;42.624;26.276;2023-03-04T02:52:05;99890.31;;;3.88;83.33
74958;BME280;63741;42.624;26.276;2023-03-04T02:54:34;99896.84;;;3.98;83.64
74958;BME280;63741;42.624;26.276;2023-03-04T02:57:03;99897.13;;;4.11;83.11
74958;BME280;63741;42.624;26.276;2023-03-04T02:59:34;99892.31;;;4.21;83.49
74958;BME280;63741;42.624;26.276;2023-03-04T03:02:03;99895.75;;;4.21;84.13
74958;BME280;63741;42.624;26.276;2023-03-04T03:04:30;99891.59;;;4.17;83.21
74958;BME280;63741;42.624;26.276;2023-03-04T03:06:58;99891.66;;;4.35;83.37
74958;BME280;63741;42.624;26.276;2023-03-04T03:09:25;99888.09;;;4.36;83.22
74958;BME280;63741;42.624;26.276;2023-03-04T03:11:51;99889.28;;;4.28;83.80
74958;BME280;63741;42.624;26.276;2023-03-04T03:14:18;99883.16;;;4.29;83.67
74958;BME280;63741;42.624;26.276;2023-03-04T03:16:46;99885.56;;;4.34;82.96
74958;BME280;63741;42.624;26.276;2023-03-04T03:19:12;99892.63;;;4.32;83.29
74958;BME280;63741;42.624;26.276;2023-03-04T03:21:39;99883.22;;;4.28;83.61
74958;BME280;63741;42.624;26.276;2023-03-04T03:24:06;99884.84;;;4.30;82.96
74958;BME280;63741;42.624;26.276;2023-03-04T03:26:34;99878.63;;;4.33;82.63
74958;BME280;63741;42.624;26.276;2023-03-04T03:29:01;99874.38;;;4.30;83.67
74958;BME280;63741;42.624;26.276;2023-03-04T03:31:27;99870.81;;;4.31;84.21
74958;BME280;63741;42.624;26.276;2023-03-04T03:33:54;99863.06;;;4.30;84.30
74958;BME280;63741;42.624;26.276;2023-03-04T03:36:21;99867.38;;;4.31;83.68
74958;BME280;63741;42.624;26.276;2023-03-04T03:38:48;99862.22;;;4.29;83.55
74958;BME280;63741;42.624;26.276;2023-03-04T03:41:15;99865.31;;;4.38;84.16
74958;BME280;63741;42.624;26.276;2023-03-04T03:43:42;99870.88;;;4.49;82.81
74958;BME280;63741;42.624;26.276;2023-03-04T03:46:09;99873.25;;;4.53;83.00
74958;BME280;63741;42.624;26.276;2023-03-04T03:48:36;99878.72;;;4.49;83.57
74958;BME280;63741;42.624;26.276;2023-03-04T03:51:03;99877.75;;;4.51;83.73
74958;BME280;63741;42.624;26.276;2023-03-04T03:53:29;99886.44;;;4.52;82.46
74958;BME280;63741;42.624;26.276;2023-03-04T03:55:56;99883.97;;;4.49;82.58
74958;BME280;63741;42.624;26.276;2023-03-04T03:58:24;99885.81;;;4.47;83.37
74958;BME280;63741;42.624;26.276;2023-03-04T04:00:52;99897.06;;;4.49;83.60
74958;BME280;63741;42.624;26.276;2023-03-04T04:03:21;99893.69;;;4.47;83.54
74958;BME280;63741;42.624;26.276;2023-03-04T04:05:48;99898.69;;;4.51;83.46
74958;BME280;63741;42.624;26.276;2023-03-04T04:08:16;99903.00;;;4.52;82.85
74958;BME280;63741;42.624;26.276;2023-03-04T04:10:43;99901.84;;;4.58;83.19
74958;BME280;63741;42.624;26.276;2023-03-04T04:13:10;99901.94;;;4.56;83.71
74958;BME280;63741;42.624;26.276;2023-03-04T04:15:38;99901.75;;;4.60;84.01
74958;BME280;63741;42.624;26.276;2023-03-04T04:18:06;99902.63;;;4.60;83.55
74958;BME280;63741;42.624;26.276;2023-03-04T04:20:33;99899.22;;;4.58;84.27
74958;BME280;63741;42.624;26.276;2023-03-04T04:23:01;99902.63;;;4.60;83.05
74958;BME280;63741;42.624;26.276;2023-03-04T04:25:28;99911.13;;;4.65;83.78
74958;BME280;63741;42.624;26.276;2023-03-04T04:27:55;99909.25;;;4.67;83.35
74958;BME280;63741;42.624;26.276;2023-03-04T04:30:22;99899.84;;;4.63;83.87
74958;BME280;63741;42.624;26.276;2023-03-04T04:32:49;99887.38;;;4.68;82.76
74958;BME280;63741;42.624;26.276;2023-03-04T04:35:15;99885.63;;;4.69;83.54
74958;BME280;63741;42.624;26.276;2023-03-04T04:37:42;99888.25;;;4.69;83.59
74958;BME280;63741;42.624;26.276;2023-03-04T04:40:10;99895.63;;;4.61;84.37
74958;BME280;63741;42.624;26.276;2023-03-04T04:42:37;99893.69;;;4.64;84.53
74958;BME280;63741;42.624;26.276;2023-03-04T04:45:04;99887.22;;;4.71;83.39
74958;BME280;63741;42.624;26.276;2023-03-04T04:47:31;99892.56;;;4.70;83.56
74958;BME280;63741;42.624;26.276;2023-03-04T04:49:58;99893.31;;;4.72;84.20
74958;BME280;63741;42.624;26.276;2023-03-04T04:52:25;99898.78;;;4.67;83.67
74958;BME280;63741;42.624;26.276;2023-03-04T04:54:51;99898.63;;;4.70;83.89
74958;BME280;63741;42.624;26.276;2023-03-04T04:57:18;99898.31;;;4.59;83.81
74958;BME280;63741;42.624;26.276;2023-03-04T04:59:45;99910.63;;;4.57;85.35
74958;BME280;63741;42.624;26.276;2023-03-04T05:02:12;99907.53;;;4.49;85.37
74958;BME280;63741;42.624;26.276;2023-03-04T05:04:39;99904.91;;;4.49;85.47
74958;BME280;63741;42.624;26.276;2023-03-04T05:07:06;99910.78;;;4.54;84.43
74958;BME280;63741;42.624;26.276;2023-03-04T05:09:33;99910.41;;;4.62;84.46
74958;BME280;63741;42.624;26.276;2023-03-04T05:11:59;99915.34;;;4.68;84.92
74958;BME280;63741;42.624;26.276;2023-03-04T05:14:26;99918.59;;;4.73;84.08
74958;BME280;63741;42.624;26.276;2023-03-04T05:16:53;99914.13;;;4.75;84.58
74958;BME280;63741;42.624;26.276;2023-03-04T05:19:20;99903.78;;;4.72;84.39
74958;BME280;63741;42.624;26.276;2023-03-04T05:21:47;99900.69;;;4.64;85.14
74958;BME280;63741;42.624;26.276;2023-03-04T05:24:14;99898.88;;;4.66;85.90
74958;BME280;63741;42.624;26.276;2023-03-04T05:26:41;99906.50;;;4.70;85.34
74958;BME280;63741;42.624;26.276;2023-03-04T05:29:08;99899.03;;;4.80;84.06
74958;BME280;63741;42.624;26.276;2023-03-04T05:31:35;99900.50;;;4.86;83.83
74958;BME280;63741;42.624;26.276;2023-03-04T05:34:02;99907.03;;;4.94;84.38
74958;BME280;63741;42.624;26.276;2023-03-04T05:36:29;99907.00;;;4.96;85.10
74958;BME280;63741;42.624;26.276;2023-03-04T05:38:56;99906.13;;;4.95;84.44
74958;BME280;63741;42.624;26.276;2023-03-04T05:41:23;99912.28;;;4.94;85.32
74958;BME280;63741;42.624;26.276;2023-03-04T05:43:50;99901.28;;;5.05;84.37
74958;BME280;63741;42.624;26.276;2023-03-04T05:46:17;99901.50;;;5.00;84.12
74958;BME280;63741;42.624;26.276;2023-03-04T05:48:52;99902.19;;;5.04;85.09
74958;BME280;63741;42.624;26.276;2023-03-04T05:51:20;99893.78;;;4.97;85.43
74958;BME280;63741;42.624;26.276;2023-03-04T05:53:47;99898.66;;;5.05;85.64
74958;BME280;63741;42.624;26.276;2023-03-04T05:56:17;99892.41;;;5.07;84.74
74958;BME280;63741;42.624;26.276;2023-03-04T05:58:44;99896.19;;;5.19;85.00
74958;BME280;63741;42.624;26.276;2023-03-04T06:01:13;99899.56;;;5.21;84.49
74958;BME280;63741;42.624;26.276;2023-03-04T06:03:40;99897.03;;;5.20;84.06
74958;BME280;63741;42.624;26.276;2023-03-04T06:06:09;99895.25;;;5.20;84.91
74958;BME280;63741;42.624;26.276;2023-03-04T06:08:36;99906.03;;;5.31;84.60
74958;BME280;63741;42.624;26.276;2023-03-04T06:11:03;99902.16;;;5.39;83.95
74958;BME280;63741;42.624;26.276;2023-03-04T06:13:31;99912.88;;;5.51;83.37
74958;BME280;63741;42.624;26.276;2023-03-04T06:15:58;99906.44;;;5.57;82.68
74958;BME280;63741;42.624;26.276;2023-03-04T06:18:27;99907.63;;;5.51;83.70
74958;BME280;63741;42.624;26.276;2023-03-04T06:20:56;99922.03;;;5.60;84.17
74958;BME280;63741;42.624;26.276;2023-03-04T06:23:24;99924.88;;;5.89;82.60
74958;BME280;63741;42.624;26.276;2023-03-04T06:25:53;99923.03;;;5.91;83.52
74958;BME280;63741;42.624;26.276;2023-03-04T06:28:20;99923.19;;;5.88;83.67
74958;BME280;63741;42.624;26.276;2023-03-04T06:30:47;99923.66;;;5.96;84.53
74958;BME280;63741;42.624;26.276;2023-03-04T06:33:16;99922.34;;;5.87;85.36
74958;BME280;63741;42.624;26.276;2023-03-04T06:35:43;99929.34;;;6.04;82.97
74958;BME280;63741;42.624;26.276;2023-03-04T06:38:10;99922.81;;;6.11;82.62
74958;BME280;63741;42.624;26.276;2023-03-04T06:40:37;99926.81;;;6.18;83.02
74958;BME280;63741;42.624;26.276;2023-03-04T06:43:04;99933.25;;;6.13;82.63
74958;BME280;63741;42.624;26.276;2023-03-04T06:45:31;99935.69;;;6.16;83.58
74958;BME280;63741;42.624;26.276;2023-03-04T06:47:58;99941.91;;;6.30;82.31
74958;BME280;63741;42.624;26.276;2023-03-04T06:50:25;99934.78;;;6.32;83.24
74958;BME280;63741;42.624;26.276;2023-03-04T06:52:52;99933.66;;;6.68;82.60
74958;BME280;63741;42.624;26.276;2023-03-04T06:55:21;99942.59;;;6.96;80.90
74958;BME280;63741;42.624;26.276;2023-03-04T06:57:48;99929.97;;;6.87;80.82
74958;BME280;63741;42.624;26.276;2023-03-04T07:00:15;99932.47;;;6.74;80.82
74958;BME280;63741;42.624;26.276;2023-03-04T07:02:43;99931.38;;;6.62;82.24
74958;BME280;63741;42.624;26.276;2023-03-04T07:05:10;99938.50;;;6.60;81.95
74958;BME280;63741;42.624;26.276;2023-03-04T07:07:37;99934.59;;;6.67;81.69
74958;BME280;63741;42.624;26.276;2023-03-04T07:10:05;99945.69;;;6.72;80.85
74958;BME280;63741;42.624;26.276;2023-03-04T07:12:32;99937.44;;;6.78;80.05
74958;BME280;63741;42.624;26.276;2023-03-04T07:14:58;99931.09;;;6.82;80.81
74958;BME280;63741;42.624;26.276;2023-03-04T07:17:25;99939.63;;;7.02;80.59
74958;BME280;63741;42.624;26.276;2023-03-04T07:19:52;99938.91;;;6.84;80.98
74958;BME280;63741;42.624;26.276;2023-03-04T07:22:19;99936.06;;;6.87;80.10
74958;BME280;63741;42.624;26.276;2023-03-04T07:24:46;99939.75;;;6.84;81.19
74958;BME280;63741;42.624;26.276;2023-03-04T07:27:13;99933.44;;;7.03;80.04
74958;BME280;63741;42.624;26.276;2023-03-04T07:29:40;99929.69;;;7.07;80.02
74958;BME280;63741;42.624;26.276;2023-03-04T07:32:08;99934.00;;;7.08;79.04
74958;BME280;63741;42.624;26.276;2023-03-04T07:34:35;99935.41;;;7.14;79.79
74958;BME280;63741;42.624;26.276;2023-03-04T07:37:02;99931.25;;;7.40;76.44
74958;BME280;63741;42.624;26.276;2023-03-04T07:39:29;99938.03;;;7.72;70.58
74958;BME280;63741;42.624;26.276;2023-03-04T07:41:56;99938.63;;;7.92;70.30
74958;BME280;63741;42.624;26.276;2023-03-04T07:44:23;99931.31;;;7.82;74.54
74958;BME280;63741;42.624;26.276;2023-03-04T07:46:50;99926.22;;;7.65;76.56
74958;BME280;63741;42.624;26.276;2023-03-04T07:49:17;99930.91;;;7.60;77.37
74958;BME280;63741;42.624;26.276;2023-03-04T07:51:43;99930.34;;;7.55;77.46
74958;BME280;63741;42.624;26.276;2023-03-04T07:54:10;99927.34;;;7.61;77.39
74958;BME280;63741;42.624;26.276;2023-03-04T07:56:37;99925.81;;;7.57;76.97
74958;BME280;63741;42.624;26.276;2023-03-04T07:59:04;99935.72;;;7.96;75.17
74958;BME280;63741;42.624;26.276;2023-03-04T08:01:34;99924.44;;;7.66;76.82
74958;BME280;63741;42.624;26.276;2023-03-04T08:04:02;99924.81;;;7.74;77.04
74958;BME280;63741;42.624;26.276;2023-03-04T08:06:30;99921.03;;;7.92;77.11
74958;BME280;63741;42.624;26.276;2023-03-04T08:09:03;99916.31;;;7.97;76.58
74958;BME280;63741;42.624;26.276;2023-03-04T08:11:31;99915.19;;;8.01;76.19
74958;BME280;63741;42.624;26.276;2023-03-04T08:13:59;99912.28;;;8.06;75.83
74958;BME280;63741;42.624;26.276;2023-03-04T08:16:26;99923.47;;;8.09;75.57
74958;BME280;63741;42.624;26.276;2023-03-04T08:18:58;99922.34;;;8.14;75.06
74958;BME280;63741;42.624;26.276;2023-03-04T08:21:25;99912.16;;;8.07;74.25
74958;BME280;63741;42.624;26.276;2023-03-04T08:23:54;99921.00;;;8.21;75.05
74958;BME280;63741;42.624;26.276;2023-03-04T08:26:32;99918.19;;;8.09;76.40
74958;BME280;63741;42.624;26.276;2023-03-04T08:29:07;99913.97;;;8.07;75.58
74958;BME280;63741;42.624;26.276;2023-03-04T08:31:34;99911.69;;;8.15;75.56
74958;BME280;63741;42.624;26.276;2023-03-04T08:34:02;99913.84;;;8.37;75.95
74958;BME280;63741;42.624;26.276;2023-03-04T08:36:29;99902.53;;;8.49;74.42
74958;BME280;63741;42.624;26.276;2023-03-04T08:38:56;99903.22;;;8.24;75.19
74958;BME280;63741;42.624;26.276;2023-03-04T08:41:23;99901.75;;;8.47;75.86
74958;BME280;63741;42.624;26.276;2023-03-04T08:43:52;99895.59;;;8.61;74.22
74958;BME280;63741;42.624;26.276;2023-03-04T08:46:19;99899.22;;;8.73;75.33
74958;BME280;63741;42.624;26.276;2023-03-04T08:48:46;99898.31;;;8.86;75.44
74958;BME280;63741;42.624;26.276;2023-03-04T08:51:14;99886.19;;;8.84;73.63
74958;BME280;63741;42.624;26.276;2023-03-04T08:53:41;99901.75;;;9.14;73.38
74958;BME280;63741;42.624;26.276;2023-03-04T08:56:09;99896.69;;;9.24;72.94
74958;BME280;63741;42.624;26.276;2023-03-04T08:58:37;99899.53;;;9.08;74.00
74958;BME280;63741;42.624;26.276;2023-03-04T09:01:07;99904.81;;;9.08;73.29
74958;BME280;63741;42.624;26.276;2023-03-04T09:03:34;99904.63;;;9.11;73.38
74958;BME280;63741;42.624;26.276;2023-03-04T09:06:02;99897.31;;;9.15;73.36
74958;BME280;63741;42.624;26.276;2023-03-04T09:08:30;99900.56;;;9.05;74.14
74958;BME280;63741;42.624;26.276;2023-03-04T09:10:57;99894.91;;;9.24;73.19
74958;BME280;63741;42.624;26.276;2023-03-04T09:13:26;99892.59;;;9.45;73.08
74958;BME280;63741;42.624;26.276;2023-03-04T09:15:53;99900.63;;;9.69;72.09
74958;BME280;63741;42.624;26.276;2023-03-04T09:18:22;99892.94;;;10.03;71.04
74958;BME280;63741;42.624;26.276;2023-03-04T09:20:49;99884.16;;;10.15;70.34
74958;BME280;63741;42.624;26.276;2023-03-04T09:23:17;99877.41;;;10.48;69.43
74958;BME280;63741;42.624;26.276;2023-03-04T09:25:45;99877.22;;;10.62;68.66
74958;BME280;63741;42.624;26.276;2023-03-04T09:28:14;99879.16;;;10.60;67.10
74958;BME280;63741;42.624;26.276;2023-03-04T09:30:41;99875.75;;;10.58;67.44
74958;BME280;63741;42.624;26.276;2023-03-04T09:33:09;99875.94;;;10.44;67.84
74958;BME280;63741;42.624;26.276;2023-03-04T09:35:36;99862.72;;;10.44;68.29
74958;BME280;63741;42.624;26.276;2023-03-04T09:38:03;99862.88;;;10.29;68.04
74958;BME280;63741;42.624;26.276;2023-03-04T09:40:45;99863.00;;;10.28;65.73
74958;BME280;63741;42.624;26.276;2023-03-04T09:43:30;99865.09;;;10.23;66.71
74958;BME280;63741;42.624;26.276;2023-03-04T09:46:01;99862.72;;;10.68;68.00
74958;BME280;63741;42.624;26.276;2023-03-04T09:48:38;99864.16;;;11.07;65.55
74958;BME280;63741;42.624;26.276;2023-03-04T09:51:13;99862.72;;;11.03;63.89
74958;BME280;63741;42.624;26.276;2023-03-04T09:56:24;99853.72;;;10.46;66.48
74958;BME280;63741;42.624;26.276;2023-03-04T10:01:44;99852.78;;;10.10;67.67
74958;BME280;63741;42.624;26.276;2023-03-04T10:04:39;99846.38;;;10.26;68.24
74958;BME280;63741;42.624;26.276;2023-03-04T10:07:25;99843.53;;;10.29;67.05
74958;BME280;63741;42.624;26.276;2023-03-04T10:10:02;99838.41;;;10.38;67.51
74958;BME280;63741;42.624;26.276;2023-03-04T10:12:32;99835.16;;;10.22;67.32
74958;BME280;63741;42.624;26.276;2023-03-04T10:17:46;99819.94;;;10.26;68.72
74958;BME280;63741;42.624;26.276;2023-03-04T10:20:21;99824.91;;;10.30;67.94
74958;BME280;63741;42.624;26.276;2023-03-04T10:22:57;99824.47;;;10.36;68.15
74958;BME280;63741;42.624;26.276;2023-03-04T10:25:28;99824.56;;;10.35;68.78
74958;BME280;63741;42.624;26.276;2023-03-04T10:28:02;99819.94;;;10.26;68.54
74958;BME280;63741;42.624;26.276;2023-03-04T10:30:58;99821.41;;;10.30;69.12
74958;BME280;63741;42.624;26.276;2023-03-04T10:33:30;99817.66;;;10.08;68.82
74958;BME280;63741;42.624;26.276;2023-03-04T10:38:36;99799.22;;;10.20;69.79
74958;BME280;63741;42.624;26.276;2023-03-04T10:41:14;99799.78;;;10.12;70.31
74958;BME280;63741;42.624;26.276;2023-03-04T10:43:42;99793.25;;;10.42;68.80
74958;BME280;63741;42.624;26.276;2023-03-04T10:46:12;99786.78;;;10.57;67.11
74958;BME280;63741;42.624;26.276;2023-03-04T10:48:42;99788.81;;;10.53;67.74
74958;BME280;63741;42.624;26.276;2023-03-04T10:51:19;99787.88;;;10.54;67.83
74958;BME280;63741;42.624;26.276;2023-03-04T10:53:50;99785.94;;;10.45;67.60
74958;BME280;63741;42.624;26.276;2023-03-04T10:59:29;99768.38;;;10.91;65.95
74958;BME280;63741;42.624;26.276;2023-03-04T11:02:10;99770.75;;;10.94;64.09
74958;BME280;63741;42.624;26.276;2023-03-04T11:04:39;99761.69;;;10.62;64.39
74958;BME280;63741;42.624;26.276;2023-03-04T11:07:10;99757.88;;;10.89;65.16
74958;BME280;63741;42.624;26.276;2023-03-04T11:09:37;99749.28;;;11.21;64.11
74958;BME280;63741;42.624;26.276;2023-03-04T11:12:14;99749.03;;;11.24;63.31
74958;BME280;63741;42.624;26.276;2023-03-04T11:14:47;99748.03;;;10.91;65.10
74958;BME280;63741;42.624;26.276;2023-03-04T11:17:23;99741.44;;;10.85;64.91
74958;BME280;63741;42.624;26.276;2023-03-04T11:20:11;99739.97;;;10.93;64.82
74958;BME280;63741;42.624;26.276;2023-03-04T11:22:40;99744.81;;;11.10;65.20
74958;BME280;63741;42.624;26.276;2023-03-04T11:25:33;99730.69;;;10.76;65.33
74958;BME280;63741;42.624;26.276;2023-03-04T11:28:05;99731.41;;;10.89;65.76
74958;BME280;63741;42.624;26.276;2023-03-04T11:30:49;99713.78;;;10.90;66.24
74958;BME280;63741;42.624;26.276;2023-03-04T11:33:35;99720.63;;;11.14;66.23
74958;BME280;63741;42.624;26.276;2023-03-04T11:38:54;99713.28;;;11.18;64.73
74958;BME280;63741;42.624;26.276;2023-03-04T11:41:32;99711.94;;;11.01;65.38
74958;BME280;63741;42.624;26.276;2023-03-04T11:44:04;99713.53;;;11.04;65.74
74958;BME280;63741;42.624;26.276;2023-03-04T11:49:41;99706.44;;;11.04;67.50
74958;BME280;63741;42.624;26.276;2023-03-04T12:20:13;99679.94;;;11.93;63.37
74958;BME280;63741;42.624;26.276;2023-03-04T12:22:45;99676.59;;;11.68;65.68
74958;BME280;63741;42.624;26.276;2023-03-04T12:40:11;99663.84;;;12.05;64.15
74958;BME280;63741;42.624;26.276;2023-03-04T12:42:57;99657.25;;;12.00;65.05
74958;BME280;63741;42.624;26.276;2023-03-04T12:45:40;99659.28;;;11.96;64.36
74958;BME280;63741;42.624;26.276;2023-03-04T12:51:35;99649.59;;;11.85;64.70
74958;BME280;63741;42.624;26.276;2023-03-04T12:56:50;99652.88;;;12.10;62.32
74958;BME280;63741;42.624;26.276;2023-03-04T12:59:21;99647.22;;;12.03;62.67
74958;BME280;63741;42.624;26.276;2023-03-04T13:10:07;99628.16;;;11.77;62.59
74958;BME280;63741;42.624;26.276;2023-03-04T13:15:37;99627.44;;;11.75;61.84
74958;BME280;63741;42.624;26.276;2023-03-04T13:18:33;99630.66;;;11.90;59.35
74958;BME280;63741;42.624;26.276;2023-03-04T13:21:06;99620.75;;;11.60;58.87
74958;BME280;63741;42.624;26.276;2023-03-04T13:23:41;99619.03;;;11.70;60.46
74958;BME280;63741;42.624;26.276;2023-03-04T13:26:28;99619.81;;;11.61;60.64
74958;BME280;63741;42.624;26.276;2023-03-04T13:29:09;99618.59;;;11.54;61.05
74958;BME280;63741;42.624;26.276;2023-03-04T13:31:57;99611.56;;;11.43;60.89
74958;BME280;63741;42.624;26.276;2023-03-04T13:34:43;99609.50;;;11.35;63.14
74958;BME280;63741;42.624;26.276;2023-03-04T13:37:32;99605.75;;;11.49;61.63
74958;BME280;63741;42.624;26.276;2023-03-04T13:42:46;99601.22;;;11.29;62.03
74958;BME280;63741;42.624;26.276;2023-03-04T13:45:32;99598.69;;;11.27;62.73
74958;BME280;63741;42.624;26.276;2023-03-04T13:48:05;99597.13;;;11.25;62.08
74958;BME280;63741;42.624;26.276;2023-03-04T13:50:44;99593.53;;;11.14;63.94
74958;BME280;63741;42.624;26.276;2023-03-04T13:53:21;99594.59;;;11.34;63.56
74958;BME280;63741;42.624;26.276;2023-03-04T14:02:01;99575.94;;;11.25;64.40
74958;BME280;63741;42.624;26.276;2023-03-04T14:04:34;99587.19;;;11.17;66.03
74958;BME280;63741;42.624;26.276;2023-03-04T14:09:57;99578.06;;;11.42;64.15
74958;BME280;63741;42.624;26.276;2023-03-04T14:12:26;99576.47;;;11.51;62.96
74958;BME280;63741;42.624;26.276;2023-03-04T14:17:46;99566.84;;;11.50;62.96
74958;BME280;63741;42.624;26.276;2023-03-04T14:22:50;99568.22;;;11.33;64.13
74958;BME280;63741;42.624;26.276;2023-03-04T14:27:45;99558.97;;;11.38;61.99
74958;BME280;63741;42.624;26.276;2023-03-04T14:30:26;99560.28;;;11.33;63.02
74958;BME280;63741;42.624;26.276;2023-03-04T14:33:14;99550.06;;;11.28;63.25
74958;BME280;63741;42.624;26.276;2023-03-04T14:35:46;99535.38;;;11.24;63.16
74958;BME280;63741;42.624;26.276;2023-03-04T14:38:24;99540.22;;;11.19;63.17
74958;BME280;63741;42.624;26.276;2023-03-04T14:41:16;99540.81;;;11.23;63.41
74958;BME280;63741;42.624;26.276;2023-03-04T14:46:35;99543.38;;;11.13;63.97
74958;BME280;63741;42.624;26.276;2023-03-04T14:49:10;99537.94;;;11.14;63.29
74958;BME280;63741;42.624;26.276;2023-03-04T14:51:48;99534.84;;;11.09;63.76
74958;BME280;63741;42.624;26.276;2023-03-04T14:54:45;99517.63;;;11.15;63.86
74958;BME280;63741;42.624;26.276;2023-03-04T14:57:27;99533.72;;;11.23;63.90
74958;BME280;63741;42.624;26.276;2023-03-04T15:00:31;99524.34;;;11.19;64.26